Eastern Galaxy — DUCH — position and weather

sailwx.info

Track history (hours):
 
Tides and Currents Weather Stations Pressure Air Temp Water Temp Dewpoint Dewpoint Depression Visibility Wind Speed Wind Dir Waves Ship Positions

Eastern Galaxy

Last reported at 2016-Sep-27 23:19 UTC. Time now 2016-Sep-28 15:26 UTC.
Position N 34°55' E 139°23'.

Length 100 m; draft 4.8 m.

Type: Cargo ship. MMSI: 548829000.

Date/timePositionNaut miles runAvg speedWind from/ knotsBaromVisibWave heightAir tempDewpointWater temp
2016-Sep-27 23:19N 34°55' E 139°23'36 9.5
2016-Sep-27 19:33N 35°27' E 139°43'2 0.3
2016-Sep-27 14:33N 35°28' E 139°42'0 0.0
2016-Sep-27 13:33N 35°28' E 139°42'0 0.0
2016-Sep-27 10:33N 35°28' E 139°42'0 0.0
2016-Sep-27 00:33N 35°28' E 139°42'2 0.5
2016-Sep-26 20:33N 35°27' E 139°43'0 0.0
2016-Sep-26 19:33N 35°27' E 139°43'0 0.0
2016-Sep-26 15:33N 35°27' E 139°43'0 0.0
2016-Sep-26 13:33N 35°27' E 139°43'0 0.0
2016-Sep-26 11:33N 35°27' E 139°43'0 0.0
2016-Sep-26 08:33N 35°27' E 139°43'0 0.0
2016-Sep-26 02:33N 35°27' E 139°43'0 0.0
2016-Sep-26 01:33N 35°27' E 139°43'0 0.0
2016-Sep-26 00:33N 35°27' E 139°43'0 0.0
2016-Sep-25 21:33N 35°27' E 139°43'0 0.0
2016-Sep-25 17:33N 35°26' E 139°43'6 5.9
2016-Sep-25 16:33N 35°21' E 139°43'1110.8
2016-Sep-25 15:33N 35°10' E 139°46'1311.5
2016-Sep-25 14:27N 34°60' E 139°37'  
Track history (hours):
 
Tides and Currents Weather Stations Pressure Air Temp Water Temp Dewpoint Dewpoint Depression Visibility Wind Speed Wind Dir Waves Ship Positions

Eastern Galaxy

Last reported at 2016-Sep-27 23:19 UTC. Time now 2016-Sep-28 15:26 UTC.
Position N 34°55' E 139°23'.

Length 100 m; draft 4.8 m.

Type: Cargo ship. MMSI: 548829000.

Date/timePositionNaut miles runAvg speedWind from/ knotsBaromVisibWave heightAir tempDewpointWater temp
2016-Sep-27 23:19N 34°55' E 139°23'36 9.5
2016-Sep-27 19:33N 35°27' E 139°43'2 0.3
2016-Sep-27 14:33N 35°28' E 139°42'0 0.0
2016-Sep-27 13:33N 35°28' E 139°42'0 0.0
2016-Sep-27 10:33N 35°28' E 139°42'0 0.0
2016-Sep-27 00:33N 35°28' E 139°42'2 0.5
2016-Sep-26 20:33N 35°27' E 139°43'0 0.0
2016-Sep-26 19:33N 35°27' E 139°43'0 0.0
2016-Sep-26 15:33N 35°27' E 139°43'0 0.0
2016-Sep-26 13:33N 35°27' E 139°43'0 0.0
2016-Sep-26 11:33N 35°27' E 139°43'0 0.0
2016-Sep-26 08:33N 35°27' E 139°43'0 0.0
2016-Sep-26 02:33N 35°27' E 139°43'0 0.0
2016-Sep-26 01:33N 35°27' E 139°43'0 0.0
2016-Sep-26 00:33N 35°27' E 139°43'0 0.0
2016-Sep-25 21:33N 35°27' E 139°43'0 0.0
2016-Sep-25 17:33N 35°26' E 139°43'6 5.9
2016-Sep-25 16:33N 35°21' E 139°43'1110.8
2016-Sep-25 15:33N 35°10' E 139°46'1311.5
2016-Sep-25 14:27N 34°60' E 139°37'  

Dump ship's entire track history